sensor_id;sensor_type;location;lat;lon;timestamp;temperature;humidity
11848;DHT22;5983;49.966;8.052;2022-09-03T00:01:07;16.80;85.80
11848;DHT22;5983;49.966;8.052;2022-09-03T00:03:42;16.70;86.80
11848;DHT22;5983;49.966;8.052;2022-09-03T00:06:15;16.60;87.50
11848;DHT22;5983;49.966;8.052;2022-09-03T00:08:51;16.60;88.10
11848;DHT22;5983;49.966;8.052;2022-09-03T00:11:28;16.60;88.70
11848;DHT22;5983;49.966;8.052;2022-09-03T00:14:03;16.60;89.20
11848;DHT22;5983;49.966;8.052;2022-09-03T00:16:43;16.60;89.90
11848;DHT22;5983;49.966;8.052;2022-09-03T00:19:17;16.50;90.10
11848;DHT22;5983;49.966;8.052;2022-09-03T00:21:53;16.50;90.10
11848;DHT22;5983;49.966;8.052;2022-09-03T00:24:27;16.40;90.20
11848;DHT22;5983;49.966;8.052;2022-09-03T00:27:00;16.40;90.30
11848;DHT22;5983;49.966;8.052;2022-09-03T00:29:36;16.40;90.60
11848;DHT22;5983;49.966;8.052;2022-09-03T00:32:12;16.40;90.70
11848;DHT22;5983;49.966;8.052;2022-09-03T00:34:46;16.30;90.70
11848;DHT22;5983;49.966;8.052;2022-09-03T00:37:16;16.30;90.70
11848;DHT22;5983;49.966;8.052;2022-09-03T00:39:43;16.40;90.80
11848;DHT22;5983;49.966;8.052;2022-09-03T00:42:22;16.40;91.20
11848;DHT22;5983;49.966;8.052;2022-09-03T00:45:13;16.40;91.50
11848;DHT22;5983;49.966;8.052;2022-09-03T00:47:57;16.40;91.70
11848;DHT22;5983;49.966;8.052;2022-09-03T00:50:41;16.30;91.90
11848;DHT22;5983;49.966;8.052;2022-09-03T00:53:19;16.30;92.10
11848;DHT22;5983;49.966;8.052;2022-09-03T00:55:59;16.30;92.30
11848;DHT22;5983;49.966;8.052;2022-09-03T00:59:03;16.20;92.70
11848;DHT22;5983;49.966;8.052;2022-09-03T01:01:45;16.20;93.00
11848;DHT22;5983;49.966;8.052;2022-09-03T01:04:27;16.10;93.40
11848;DHT22;5983;49.966;8.052;2022-09-03T01:07:13;16.10;93.60
11848;DHT22;5983;49.966;8.052;2022-09-03T01:09:52;16.10;94.00
11848;DHT22;5983;49.966;8.052;2022-09-03T01:12:36;16.10;94.30
11848;DHT22;5983;49.966;8.052;2022-09-03T01:15:13;16.10;94.30
11848;DHT22;5983;49.966;8.052;2022-09-03T01:17:56;16.10;94.40
11848;DHT22;5983;49.966;8.052;2022-09-03T01:20:38;16.20;94.30
11848;DHT22;5983;49.966;8.052;2022-09-03T01:23:46;16.20;94.50
11848;DHT22;5983;49.966;8.052;2022-09-03T01:26:34;16.20;94.70
11848;DHT22;5983;49.966;8.052;2022-09-03T01:29:21;16.20;94.80
11848;DHT22;5983;49.966;8.052;2022-09-03T01:32:01;16.20;94.90
11848;DHT22;5983;49.966;8.052;2022-09-03T01:34:44;16.20;95.10
11848;DHT22;5983;49.966;8.052;2022-09-03T01:37:28;16.20;94.80
11848;DHT22;5983;49.966;8.052;2022-09-03T01:40:13;16.30;95.20
11848;DHT22;5983;49.966;8.052;2022-09-03T01:42:53;16.30;95.60
11848;DHT22;5983;49.966;8.052;2022-09-03T01:45:38;16.30;95.90
11848;DHT22;5983;49.966;8.052;2022-09-03T01:48:26;16.30;96.20
11848;DHT22;5983;49.966;8.052;2022-09-03T01:51:08;16.30;96.30
11848;DHT22;5983;49.966;8.052;2022-09-03T01:54:08;16.30;96.30
11848;DHT22;5983;49.966;8.052;2022-09-03T02:00:10;16.40;96.70
11848;DHT22;5983;49.966;8.052;2022-09-03T02:02:40;16.40;96.90
11848;DHT22;5983;49.966;8.052;2022-09-03T02:05:11;16.40;96.70
11848;DHT22;5983;49.966;8.052;2022-09-03T02:07:42;16.50;97.00
11848;DHT22;5983;49.966;8.052;2022-09-03T02:10:12;16.50;97.20
11848;DHT22;5983;49.966;8.052;2022-09-03T02:12:44;16.50;97.40
11848;DHT22;5983;49.966;8.052;2022-09-03T02:15:15;16.60;98.00
11848;DHT22;5983;49.966;8.052;2022-09-03T02:17:47;16.60;98.30
11848;DHT22;5983;49.966;8.052;2022-09-03T02:20:20;16.60;98.30
11848;DHT22;5983;49.966;8.052;2022-09-03T02:22:49;16.70;98.20
11848;DHT22;5983;49.966;8.052;2022-09-03T02:25:20;16.70;98.50
11848;DHT22;5983;49.966;8.052;2022-09-03T02:27:49;16.80;98.40
11848;DHT22;5983;49.966;8.052;2022-09-03T02:30:16;16.80;98.10
11848;DHT22;5983;49.966;8.052;2022-09-03T02:32:44;16.90;97.10
11848;DHT22;5983;49.966;8.052;2022-09-03T02:35:12;16.90;97.20
11848;DHT22;5983;49.966;8.052;2022-09-03T02:37:39;17.00;97.20
11848;DHT22;5983;49.966;8.052;2022-09-03T02:40:07;17.00;97.20
11848;DHT22;5983;49.966;8.052;2022-09-03T02:42:35;17.00;97.50
11848;DHT22;5983;49.966;8.052;2022-09-03T02:45:09;17.10;98.30
11848;DHT22;5983;49.966;8.052;2022-09-03T02:47:50;17.00;98.90
11848;DHT22;5983;49.966;8.052;2022-09-03T02:50:19;17.00;99.10
11848;DHT22;5983;49.966;8.052;2022-09-03T02:52:46;17.00;99.60
11848;DHT22;5983;49.966;8.052;2022-09-03T02:55:13;17.00;99.70
11848;DHT22;5983;49.966;8.052;2022-09-03T02:57:40;17.00;99.90
11848;DHT22;5983;49.966;8.052;2022-09-03T03:00:08;17.00;99.90
11848;DHT22;5983;49.966;8.052;2022-09-03T03:02:35;17.00;99.90
11848;DHT22;5983;49.966;8.052;2022-09-03T03:05:05;17.00;99.90
11848;DHT22;5983;49.966;8.052;2022-09-03T03:07:35;17.10;99.70
11848;DHT22;5983;49.966;8.052;2022-09-03T03:10:05;17.10;99.80
11848;DHT22;5983;49.966;8.052;2022-09-03T03:12:33;17.20;99.90
11848;DHT22;5983;49.966;8.052;2022-09-03T03:14:59;17.20;99.90
11848;DHT22;5983;49.966;8.052;2022-09-03T03:17:27;17.20;99.50
11848;DHT22;5983;49.966;8.052;2022-09-03T03:19:54;17.30;99.10
11848;DHT22;5983;49.966;8.052;2022-09-03T03:22:22;17.30;98.60
11848;DHT22;5983;49.966;8.052;2022-09-03T03:24:49;17.40;98.30
11848;DHT22;5983;49.966;8.052;2022-09-03T03:27:17;17.40;98.50
11848;DHT22;5983;49.966;8.052;2022-09-03T03:29:44;17.40;98.50
11848;DHT22;5983;49.966;8.052;2022-09-03T03:32:11;17.40;99.00
11848;DHT22;5983;49.966;8.052;2022-09-03T03:34:38;17.40;99.70
11848;DHT22;5983;49.966;8.052;2022-09-03T03:37:05;17.40;99.90
11848;DHT22;5983;49.966;8.052;2022-09-03T03:39:33;17.30;99.90
11848;DHT22;5983;49.966;8.052;2022-09-03T03:42:00;17.30;99.80
11848;DHT22;5983;49.966;8.052;2022-09-03T03:44:27;17.30;99.80
11848;DHT22;5983;49.966;8.052;2022-09-03T03:46:54;17.20;99.80
11848;DHT22;5983;49.966;8.052;2022-09-03T03:49:21;17.20;99.90
11848;DHT22;5983;49.966;8.052;2022-09-03T03:51:48;17.10;99.80
11848;DHT22;5983;49.966;8.052;2022-09-03T03:54:14;17.10;99.60
11848;DHT22;5983;49.966;8.052;2022-09-03T03:56:43;17.00;99.80
11848;DHT22;5983;49.966;8.052;2022-09-03T03:59:09;17.00;99.90
11848;DHT22;5983;49.966;8.052;2022-09-03T04:01:36;17.00;99.90
11848;DHT22;5983;49.966;8.052;2022-09-03T04:04:03;16.90;99.90
11848;DHT22;5983;49.966;8.052;2022-09-03T04:06:30;16.90;99.90
11848;DHT22;5983;49.966;8.052;2022-09-03T04:08:57;16.90;99.90
11848;DHT22;5983;49.966;8.052;2022-09-03T04:11:25;16.90;99.90
11848;DHT22;5983;49.966;8.052;2022-09-03T04:13:53;16.90;99.90
11848;DHT22;5983;49.966;8.052;2022-09-03T04:16:22;16.80;99.90
11848;DHT22;5983;49.966;8.052;2022-09-03T04:18:51;16.80;99.90
11848;DHT22;5983;49.966;8.052;2022-09-03T04:21:20;16.80;99.90
11848;DHT22;5983;49.966;8.052;2022-09-03T04:23:50;16.80;99.90
11848;DHT22;5983;49.966;8.052;2022-09-03T04:26:19;16.80;99.90
11848;DHT22;5983;49.966;8.052;2022-09-03T04:28:47;16.80;99.90
11848;DHT22;5983;49.966;8.052;2022-09-03T04:31:17;16.80;99.90
11848;DHT22;5983;49.966;8.052;2022-09-03T04:33:45;16.70;99.90
11848;DHT22;5983;49.966;8.052;2022-09-03T04:36:13;16.70;99.90
11848;DHT22;5983;49.966;8.052;2022-09-03T04:38:42;16.80;99.90
11848;DHT22;5983;49.966;8.052;2022-09-03T04:41:12;16.80;99.90
11848;DHT22;5983;49.966;8.052;2022-09-03T04:43:40;16.80;99.90
11848;DHT22;5983;49.966;8.052;2022-09-03T04:46:08;16.80;99.90
11848;DHT22;5983;49.966;8.052;2022-09-03T04:48:38;16.80;99.90
11848;DHT22;5983;49.966;8.052;2022-09-03T04:51:07;16.80;99.90
11848;DHT22;5983;49.966;8.052;2022-09-03T04:53:36;16.80;99.90
11848;DHT22;5983;49.966;8.052;2022-09-03T04:56:12;16.80;99.90
11848;DHT22;5983;49.966;8.052;2022-09-03T04:58:39;16.90;99.90
11848;DHT22;5983;49.966;8.052;2022-09-03T05:01:08;16.90;99.90
11848;DHT22;5983;49.966;8.052;2022-09-03T05:03:35;16.90;99.90
11848;DHT22;5983;49.966;8.052;2022-09-03T05:06:04;17.00;99.90
11848;DHT22;5983;49.966;8.052;2022-09-03T05:08:33;17.00;99.90
11848;DHT22;5983;49.966;8.052;2022-09-03T05:11:01;17.00;99.90
11848;DHT22;5983;49.966;8.052;2022-09-03T05:13:28;17.00;99.90
11848;DHT22;5983;49.966;8.052;2022-09-03T05:15:58;17.00;99.90
11848;DHT22;5983;49.966;8.052;2022-09-03T05:18:26;17.00;99.90
11848;DHT22;5983;49.966;8.052;2022-09-03T05:20:57;17.00;99.90
11848;DHT22;5983;49.966;8.052;2022-09-03T05:23:28;17.00;99.90
11848;DHT22;5983;49.966;8.052;2022-09-03T05:25:55;17.00;99.90
11848;DHT22;5983;49.966;8.052;2022-09-03T05:28:23;17.00;99.90
11848;DHT22;5983;49.966;8.052;2022-09-03T05:30:57;17.00;99.90
11848;DHT22;5983;49.966;8.052;2022-09-03T05:33:25;17.10;99.90
11848;DHT22;5983;49.966;8.052;2022-09-03T05:35:52;17.10;99.90
11848;DHT22;5983;49.966;8.052;2022-09-03T05:38:19;17.10;99.90
11848;DHT22;5983;49.966;8.052;2022-09-03T05:40:48;17.10;99.90
11848;DHT22;5983;49.966;8.052;2022-09-03T05:43:14;17.10;99.90
11848;DHT22;5983;49.966;8.052;2022-09-03T05:45:42;17.00;99.90
11848;DHT22;5983;49.966;8.052;2022-09-03T05:48:09;16.90;99.90
11848;DHT22;5983;49.966;8.052;2022-09-03T05:50:35;16.90;99.90
11848;DHT22;5983;49.966;8.052;2022-09-03T05:53:02;16.80;99.90
11848;DHT22;5983;49.966;8.052;2022-09-03T05:55:29;16.70;99.90
11848;DHT22;5983;49.966;8.052;2022-09-03T05:57:57;16.60;99.90
11848;DHT22;5983;49.966;8.052;2022-09-03T06:00:24;16.60;99.90
11848;DHT22;5983;49.966;8.052;2022-09-03T06:02:52;16.60;99.90
11848;DHT22;5983;49.966;8.052;2022-09-03T06:05:20;16.50;99.90
11848;DHT22;5983;49.966;8.052;2022-09-03T06:07:47;16.50;99.90
11848;DHT22;5983;49.966;8.052;2022-09-03T06:10:17;16.60;99.90
11848;DHT22;5983;49.966;8.052;2022-09-03T06:12:44;16.60;99.90
11848;DHT22;5983;49.966;8.052;2022-09-03T06:15:15;16.70;99.90
11848;DHT22;5983;49.966;8.052;2022-09-03T06:17:42;16.80;99.90
11848;DHT22;5983;49.966;8.052;2022-09-03T06:20:09;16.90;99.90
11848;DHT22;5983;49.966;8.052;2022-09-03T06:22:36;16.90;99.90
11848;DHT22;5983;49.966;8.052;2022-09-03T06:25:04;17.00;99.90
11848;DHT22;5983;49.966;8.052;2022-09-03T06:27:32;17.00;99.90
11848;DHT22;5983;49.966;8.052;2022-09-03T06:29:58;17.00;99.90
11848;DHT22;5983;49.966;8.052;2022-09-03T06:32:27;17.00;99.90
11848;DHT22;5983;49.966;8.052;2022-09-03T06:34:54;17.00;99.90
11848;DHT22;5983;49.966;8.052;2022-09-03T06:37:21;17.00;99.90
11848;DHT22;5983;49.966;8.052;2022-09-03T06:39:48;17.00;99.90
11848;DHT22;5983;49.966;8.052;2022-09-03T06:42:16;16.90;99.90
11848;DHT22;5983;49.966;8.052;2022-09-03T06:44:43;16.90;99.90
11848;DHT22;5983;49.966;8.052;2022-09-03T06:47:10;16.90;99.90
11848;DHT22;5983;49.966;8.052;2022-09-03T06:49:38;16.90;99.90
11848;DHT22;5983;49.966;8.052;2022-09-03T06:52:05;16.90;99.90
11848;DHT22;5983;49.966;8.052;2022-09-03T06:54:32;16.90;99.90
11848;DHT22;5983;49.966;8.052;2022-09-03T06:56:59;16.80;99.90
11848;DHT22;5983;49.966;8.052;2022-09-03T06:59:26;16.90;99.90
11848;DHT22;5983;49.966;8.052;2022-09-03T07:01:53;16.90;99.90
11848;DHT22;5983;49.966;8.052;2022-09-03T07:04:20;16.90;99.90
11848;DHT22;5983;49.966;8.052;2022-09-03T07:06:50;16.90;99.90
11848;DHT22;5983;49.966;8.052;2022-09-03T07:09:17;17.00;99.90
11848;DHT22;5983;49.966;8.052;2022-09-03T07:11:44;17.00;99.90
11848;DHT22;5983;49.966;8.052;2022-09-03T07:14:15;16.90;99.90
11848;DHT22;5983;49.966;8.052;2022-09-03T07:16:43;17.00;99.90
11848;DHT22;5983;49.966;8.052;2022-09-03T07:19:11;17.00;99.90
11848;DHT22;5983;49.966;8.052;2022-09-03T07:21:39;17.00;99.90
11848;DHT22;5983;49.966;8.052;2022-09-03T07:24:09;17.00;99.90
11848;DHT22;5983;49.966;8.052;2022-09-03T07:26:38;17.00;99.90
11848;DHT22;5983;49.966;8.052;2022-09-03T07:29:09;17.00;99.90
11848;DHT22;5983;49.966;8.052;2022-09-03T07:31:38;17.00;99.90
11848;DHT22;5983;49.966;8.052;2022-09-03T07:34:09;17.00;99.90
11848;DHT22;5983;49.966;8.052;2022-09-03T07:36:38;17.00;99.90
11848;DHT22;5983;49.966;8.052;2022-09-03T07:39:09;17.00;99.90
11848;DHT22;5983;49.966;8.052;2022-09-03T07:41:37;16.90;99.90
11848;DHT22;5983;49.966;8.052;2022-09-03T07:44:08;17.00;99.90
11848;DHT22;5983;49.966;8.052;2022-09-03T07:46:36;17.10;99.90
11848;DHT22;5983;49.966;8.052;2022-09-03T07:49:04;17.10;99.90
11848;DHT22;5983;49.966;8.052;2022-09-03T07:51:33;17.10;99.90
11848;DHT22;5983;49.966;8.052;2022-09-03T07:54:03;17.10;99.90
11848;DHT22;5983;49.966;8.052;2022-09-03T07:56:34;17.20;99.90
11848;DHT22;5983;49.966;8.052;2022-09-03T07:59:02;17.30;99.90
11848;DHT22;5983;49.966;8.052;2022-09-03T08:01:30;17.40;99.90
11848;DHT22;5983;49.966;8.052;2022-09-03T08:03:59;17.50;99.90
11848;DHT22;5983;49.966;8.052;2022-09-03T08:06:28;17.60;99.90
11848;DHT22;5983;49.966;8.052;2022-09-03T08:08:57;17.70;99.90
11848;DHT22;5983;49.966;8.052;2022-09-03T08:11:26;17.80;99.90
11848;DHT22;5983;49.966;8.052;2022-09-03T08:13:57;17.90;99.90
11848;DHT22;5983;49.966;8.052;2022-09-03T08:16:28;18.00;99.90
11848;DHT22;5983;49.966;8.052;2022-09-03T08:18:56;18.10;99.90
11848;DHT22;5983;49.966;8.052;2022-09-03T08:21:25;18.20;99.90
11848;DHT22;5983;49.966;8.052;2022-09-03T08:23:54;18.20;99.90
11848;DHT22;5983;49.966;8.052;2022-09-03T08:26:27;18.20;99.90
11848;DHT22;5983;49.966;8.052;2022-09-03T08:28:56;18.20;99.90
11848;DHT22;5983;49.966;8.052;2022-09-03T08:31:24;18.20;99.90
11848;DHT22;5983;49.966;8.052;2022-09-03T08:33:53;18.30;99.90
11848;DHT22;5983;49.966;8.052;2022-09-03T08:36:23;18.30;99.90
11848;DHT22;5983;49.966;8.052;2022-09-03T08:38:52;18.30;99.90
11848;DHT22;5983;49.966;8.052;2022-09-03T08:41:25;18.30;99.90
11848;DHT22;5983;49.966;8.052;2022-09-03T08:44:21;18.30;99.90
11848;DHT22;5983;49.966;8.052;2022-09-03T08:46:53;18.30;99.90
11848;DHT22;5983;49.966;8.052;2022-09-03T08:49:26;18.30;99.90
11848;DHT22;5983;49.966;8.052;2022-09-03T08:52:07;18.40;99.90
11848;DHT22;5983;49.966;8.052;2022-09-03T08:54:47;18.50;99.90
11848;DHT22;5983;49.966;8.052;2022-09-03T08:57:18;18.50;99.90
11848;DHT22;5983;49.966;8.052;2022-09-03T08:59:51;18.60;99.90
11848;DHT22;5983;49.966;8.052;2022-09-03T09:02:28;18.60;99.90
11848;DHT22;5983;49.966;8.052;2022-09-03T09:05:08;18.60;99.90
11848;DHT22;5983;49.966;8.052;2022-09-03T09:07:41;18.70;99.90
11848;DHT22;5983;49.966;8.052;2022-09-03T09:10:19;18.80;99.90
11848;DHT22;5983;49.966;8.052;2022-09-03T09:13:02;19.00;99.90
11848;DHT22;5983;49.966;8.052;2022-09-03T09:15:42;19.30;99.90
11848;DHT22;5983;49.966;8.052;2022-09-03T09:18:21;19.70;99.90
11848;DHT22;5983;49.966;8.052;2022-09-03T09:20:55;20.10;99.90
11848;DHT22;5983;49.966;8.052;2022-09-03T09:23:28;20.40;99.90
11848;DHT22;5983;49.966;8.052;2022-09-03T09:26:02;20.70;99.90
11848;DHT22;5983;49.966;8.052;2022-09-03T09:28:34;21.00;99.90
11848;DHT22;5983;49.966;8.052;2022-09-03T09:31:06;21.30;99.90
11848;DHT22;5983;49.966;8.052;2022-09-03T09:33:37;21.60;99.90
11848;DHT22;5983;49.966;8.052;2022-09-03T09:36:07;21.90;99.90
11848;DHT22;5983;49.966;8.052;2022-09-03T09:38:37;22.10;99.90
11848;DHT22;5983;49.966;8.052;2022-09-03T09:41:09;22.50;99.90
11848;DHT22;5983;49.966;8.052;2022-09-03T09:43:38;22.80;99.90
11848;DHT22;5983;49.966;8.052;2022-09-03T09:46:11;23.30;99.90
11848;DHT22;5983;49.966;8.052;2022-09-03T09:48:46;23.80;99.90
11848;DHT22;5983;49.966;8.052;2022-09-03T09:51:21;24.30;99.90
11848;DHT22;5983;49.966;8.052;2022-09-03T09:54:00;24.40;99.90
11848;DHT22;5983;49.966;8.052;2022-09-03T09:56:29;24.60;99.90
11848;DHT22;5983;49.966;8.052;2022-09-03T09:59:05;24.90;99.90
11848;DHT22;5983;49.966;8.052;2022-09-03T10:01:37;25.10;99.90
11848;DHT22;5983;49.966;8.052;2022-09-03T10:04:09;25.00;99.90
11848;DHT22;5983;49.966;8.052;2022-09-03T10:06:38;24.90;99.90
11848;DHT22;5983;49.966;8.052;2022-09-03T10:09:22;25.10;99.90
11848;DHT22;5983;49.966;8.052;2022-09-03T10:12:03;25.10;99.90
11848;DHT22;5983;49.966;8.052;2022-09-03T10:14:43;24.70;99.90
11848;DHT22;5983;49.966;8.052;2022-09-03T10:17:19;24.20;99.90
11848;DHT22;5983;49.966;8.052;2022-09-03T10:19:56;23.70;99.90
11848;DHT22;5983;49.966;8.052;2022-09-03T10:22:53;23.50;99.90
11848;DHT22;5983;49.966;8.052;2022-09-03T10:25:25;23.40;99.90
11848;DHT22;5983;49.966;8.052;2022-09-03T10:27:58;23.10;99.90
11848;DHT22;5983;49.966;8.052;2022-09-03T10:30:27;22.90;99.90
11848;DHT22;5983;49.966;8.052;2022-09-03T10:33:06;22.70;99.90
11848;DHT22;5983;49.966;8.052;2022-09-03T10:35:43;22.50;99.90
11848;DHT22;5983;49.966;8.052;2022-09-03T10:38:25;22.50;99.90
11848;DHT22;5983;49.966;8.052;2022-09-03T10:41:02;22.40;99.90
11848;DHT22;5983;49.966;8.052;2022-09-03T10:44:03;22.30;99.90
11848;DHT22;5983;49.966;8.052;2022-09-03T10:46:49;22.30;99.90
11848;DHT22;5983;49.966;8.052;2022-09-03T10:49:36;22.40;99.90
11848;DHT22;5983;49.966;8.052;2022-09-03T10:52:18;22.40;99.90
11848;DHT22;5983;49.966;8.052;2022-09-03T10:58:00;22.40;99.90
11848;DHT22;5983;49.966;8.052;2022-09-03T11:00:44;22.40;99.90
11848;DHT22;5983;49.966;8.052;2022-09-03T11:03:43;22.60;99.90
11848;DHT22;5983;49.966;8.052;2022-09-03T11:06:18;22.60;99.90
11848;DHT22;5983;49.966;8.052;2022-09-03T11:08:54;22.70;99.90
11848;DHT22;5983;49.966;8.052;2022-09-03T11:11:30;22.90;99.90
11848;DHT22;5983;49.966;8.052;2022-09-03T11:14:06;23.30;99.90
11848;DHT22;5983;49.966;8.052;2022-09-03T11:16:37;23.80;99.90
11848;DHT22;5983;49.966;8.052;2022-09-03T11:19:10;24.40;99.90
11848;DHT22;5983;49.966;8.052;2022-09-03T11:21:42;25.10;99.90
11848;DHT22;5983;49.966;8.052;2022-09-03T11:24:12;25.80;99.90
11848;DHT22;5983;49.966;8.052;2022-09-03T11:26:44;26.30;99.90
11848;DHT22;5983;49.966;8.052;2022-09-03T11:29:17;26.20;99.90
11848;DHT22;5983;49.966;8.052;2022-09-03T11:31:55;26.10;99.90
11848;DHT22;5983;49.966;8.052;2022-09-03T11:34:29;25.90;99.90
11848;DHT22;5983;49.966;8.052;2022-09-03T11:37:21;26.20;99.90
11848;DHT22;5983;49.966;8.052;2022-09-03T11:39:56;26.40;99.90
11848;DHT22;5983;49.966;8.052;2022-09-03T11:42:29;26.50;99.90
11848;DHT22;5983;49.966;8.052;2022-09-03T11:45:13;26.40;99.90
11848;DHT22;5983;49.966;8.052;2022-09-03T11:47:47;26.10;99.90
11848;DHT22;5983;49.966;8.052;2022-09-03T11:50:18;26.00;99.90
11848;DHT22;5983;49.966;8.052;2022-09-03T11:52:50;26.10;99.90
11848;DHT22;5983;49.966;8.052;2022-09-03T11:55:26;26.40;99.90
11848;DHT22;5983;49.966;8.052;2022-09-03T11:58:09;26.40;99.90
11848;DHT22;5983;49.966;8.052;2022-09-03T12:00:38;26.50;99.90
11848;DHT22;5983;49.966;8.052;2022-09-03T12:03:12;26.50;99.90
11848;DHT22;5983;49.966;8.052;2022-09-03T12:05:48;26.60;99.90
11848;DHT22;5983;49.966;8.052;2022-09-03T12:08:56;26.60;99.90
11848;DHT22;5983;49.966;8.052;2022-09-03T12:11:43;26.60;99.90
11848;DHT22;5983;49.966;8.052;2022-09-03T12:14:22;26.70;99.90
11848;DHT22;5983;49.966;8.052;2022-09-03T12:17:21;26.90;99.90
11848;DHT22;5983;49.966;8.052;2022-09-03T12:19:55;27.10;99.90
11848;DHT22;5983;49.966;8.052;2022-09-03T12:22:27;27.20;99.90
11848;DHT22;5983;49.966;8.052;2022-09-03T12:25:06;27.30;99.50
11848;DHT22;5983;49.966;8.052;2022-09-03T12:27:35;27.00;99.10
11848;DHT22;5983;49.966;8.052;2022-09-03T12:30:04;26.60;99.50
11848;DHT22;5983;49.966;8.052;2022-09-03T12:32:39;26.50;99.90
11848;DHT22;5983;49.966;8.052;2022-09-03T12:35:12;26.40;99.90
11848;DHT22;5983;49.966;8.052;2022-09-03T12:37:42;26.10;99.90
11848;DHT22;5983;49.966;8.052;2022-09-03T12:40:20;25.80;99.90
11848;DHT22;5983;49.966;8.052;2022-09-03T12:42:50;25.70;99.90
11848;DHT22;5983;49.966;8.052;2022-09-03T12:45:20;25.50;99.90
11848;DHT22;5983;49.966;8.052;2022-09-03T12:47:49;25.40;99.90
11848;DHT22;5983;49.966;8.052;2022-09-03T12:50:19;25.40;99.90
11848;DHT22;5983;49.966;8.052;2022-09-03T12:52:49;25.30;99.90
11848;DHT22;5983;49.966;8.052;2022-09-03T12:55:27;25.30;99.90
11848;DHT22;5983;49.966;8.052;2022-09-03T12:58:04;25.40;99.90
11848;DHT22;5983;49.966;8.052;2022-09-03T13:00:37;25.70;99.90
11848;DHT22;5983;49.966;8.052;2022-09-03T13:03:12;26.00;99.90
11848;DHT22;5983;49.966;8.052;2022-09-03T13:05:45;26.20;99.90
11848;DHT22;5983;49.966;8.052;2022-09-03T13:08:18;26.10;99.90
11848;DHT22;5983;49.966;8.052;2022-09-03T13:10:52;26.30;99.90
11848;DHT22;5983;49.966;8.052;2022-09-03T13:13:23;26.20;99.90
11848;DHT22;5983;49.966;8.052;2022-09-03T13:15:59;26.10;99.90
11848;DHT22;5983;49.966;8.052;2022-09-03T13:18:41;25.70;99.90
11848;DHT22;5983;49.966;8.052;2022-09-03T13:21:17;25.30;99.90
11848;DHT22;5983;49.966;8.052;2022-09-03T13:24:15;25.10;99.90
11848;DHT22;5983;49.966;8.052;2022-09-03T13:27:07;25.00;99.90
11848;DHT22;5983;49.966;8.052;2022-09-03T13:29:54;24.90;99.90
11848;DHT22;5983;49.966;8.052;2022-09-03T13:32:33;24.70;99.90
11848;DHT22;5983;49.966;8.052;2022-09-03T13:35:09;24.40;99.90
11848;DHT22;5983;49.966;8.052;2022-09-03T13:37:44;24.20;99.90
11848;DHT22;5983;49.966;8.052;2022-09-03T13:40:18;23.90;99.90
11848;DHT22;5983;49.966;8.052;2022-09-03T13:42:54;23.80;99.90
11848;DHT22;5983;49.966;8.052;2022-09-03T13:45:30;23.80;99.90
11848;DHT22;5983;49.966;8.052;2022-09-03T13:48:08;23.80;99.90
11848;DHT22;5983;49.966;8.052;2022-09-03T13:51:12;24.00;99.90
11848;DHT22;5983;49.966;8.052;2022-09-03T13:53:50;24.20;99.90
11848;DHT22;5983;49.966;8.052;2022-09-03T13:56:35;24.50;99.90
11848;DHT22;5983;49.966;8.052;2022-09-03T13:59:22;24.80;99.90
11848;DHT22;5983;49.966;8.052;2022-09-03T14:02:04;25.10;99.90
11848;DHT22;5983;49.966;8.052;2022-09-03T14:04:48;25.40;99.90
11848;DHT22;5983;49.966;8.052;2022-09-03T14:07:25;25.60;99.90
11848;DHT22;5983;49.966;8.052;2022-09-03T14:10:05;25.70;99.90
11848;DHT22;5983;49.966;8.052;2022-09-03T14:12:48;25.60;99.90
11848;DHT22;5983;49.966;8.052;2022-09-03T14:15:23;25.40;99.90
11848;DHT22;5983;49.966;8.052;2022-09-03T14:17:58;25.10;99.90
11848;DHT22;5983;49.966;8.052;2022-09-03T14:20:40;24.90;99.90
11848;DHT22;5983;49.966;8.052;2022-09-03T14:23:24;24.70;99.90
11848;DHT22;5983;49.966;8.052;2022-09-03T14:25:59;24.60;99.90
11848;DHT22;5983;49.966;8.052;2022-09-03T14:28:33;24.30;99.90
11848;DHT22;5983;49.966;8.052;2022-09-03T14:31:10;24.00;99.90
11848;DHT22;5983;49.966;8.052;2022-09-03T14:33:51;23.80;99.90
11848;DHT22;5983;49.966;8.052;2022-09-03T14:36:29;23.80;99.90
11848;DHT22;5983;49.966;8.052;2022-09-03T14:39:22;23.70;99.90
11848;DHT22;5983;49.966;8.052;2022-09-03T14:42:16;23.70;99.90
11848;DHT22;5983;49.966;8.052;2022-09-03T14:45:17;23.60;99.90
11848;DHT22;5983;49.966;8.052;2022-09-03T14:48:29;23.60;99.90
11848;DHT22;5983;49.966;8.052;2022-09-03T14:57:39;23.60;99.90
11848;DHT22;5983;49.966;8.052;2022-09-03T15:00:32;23.60;99.90
11848;DHT22;5983;49.966;8.052;2022-09-03T15:03:18;23.50;99.90
11848;DHT22;5983;49.966;8.052;2022-09-03T15:09:14;23.40;99.90
11848;DHT22;5983;49.966;8.052;2022-09-03T15:11:51;23.40;99.90
11848;DHT22;5983;49.966;8.052;2022-09-03T15:14:29;23.30;99.90
11848;DHT22;5983;49.966;8.052;2022-09-03T15:17:18;23.30;99.90
11848;DHT22;5983;49.966;8.052;2022-09-03T15:20:03;23.20;99.90
11848;DHT22;5983;49.966;8.052;2022-09-03T15:29:32;23.00;99.90
11848;DHT22;5983;49.966;8.052;2022-09-03T15:32:13;22.90;99.90
11848;DHT22;5983;49.966;8.052;2022-09-03T15:35:04;22.80;99.90
11848;DHT22;5983;49.966;8.052;2022-09-03T15:37:38;22.70;99.90
11848;DHT22;5983;49.966;8.052;2022-09-03T15:40:22;22.60;99.90
11848;DHT22;5983;49.966;8.052;2022-09-03T15:42:58;22.60;99.90
11848;DHT22;5983;49.966;8.052;2022-09-03T15:45:37;22.60;99.90
11848;DHT22;5983;49.966;8.052;2022-09-03T15:48:20;22.60;99.90
11848;DHT22;5983;49.966;8.052;2022-09-03T15:51:04;22.50;99.90
11848;DHT22;5983;49.966;8.052;2022-09-03T15:53:40;22.50;99.90
11848;DHT22;5983;49.966;8.052;2022-09-03T15:56:18;22.50;99.90
11848;DHT22;5983;49.966;8.052;2022-09-03T15:58:56;22.50;99.90
11848;DHT22;5983;49.966;8.052;2022-09-03T16:01:38;22.20;99.90
11848;DHT22;5983;49.966;8.052;2022-09-03T16:04:24;21.90;99.90
11848;DHT22;5983;49.966;8.052;2022-09-03T16:07:08;21.50;99.90
11848;DHT22;5983;49.966;8.052;2022-09-03T16:09:48;21.30;99.90
11848;DHT22;5983;49.966;8.052;2022-09-03T16:12:32;20.90;99.90
11848;DHT22;5983;49.966;8.052;2022-09-03T16:15:08;20.60;99.90
11848;DHT22;5983;49.966;8.052;2022-09-03T16:17:48;20.40;99.90
11848;DHT22;5983;49.966;8.052;2022-09-03T16:20:23;20.30;99.90
11848;DHT22;5983;49.966;8.052;2022-09-03T16:23:01;20.20;99.90
11848;DHT22;5983;49.966;8.052;2022-09-03T16:25:44;20.20;99.90
11848;DHT22;5983;49.966;8.052;2022-09-03T16:28:18;20.20;99.90
11848;DHT22;5983;49.966;8.052;2022-09-03T16:31:00;20.20;99.90
11848;DHT22;5983;49.966;8.052;2022-09-03T16:33:41;20.20;99.90
11848;DHT22;5983;49.966;8.052;2022-09-03T16:36:31;20.20;99.90
11848;DHT22;5983;49.966;8.052;2022-09-03T16:39:17;20.30;99.90
11848;DHT22;5983;49.966;8.052;2022-09-03T16:41:59;20.30;99.90
11848;DHT22;5983;49.966;8.052;2022-09-03T16:44:42;20.30;99.90
11848;DHT22;5983;49.966;8.052;2022-09-03T16:47:23;20.30;99.90
11848;DHT22;5983;49.966;8.052;2022-09-03T16:50:08;20.40;99.90
11848;DHT22;5983;49.966;8.052;2022-09-03T16:52:51;20.40;99.90
11848;DHT22;5983;49.966;8.052;2022-09-03T16:55:33;20.40;99.90